Time;durP1;ratioP1;P1;durP2;ratioP2;P2;SDS_P1;SDS_P2;PMS_P1;PMS_P2;Temp;Humidity;BMP_temperature;BMP_pressure;BME280_temperature;BME280_humidity;BME280_pressure;Samples;Min_cycle;Max_cycle;Signal;HPM_P1;HPM_P2
2022/01/22 00:00:24;;;;;;;6.43;3.67;;;4.20;90.60;;;;;;5016345;28;20044;-82
2022/01/22 00:02:50;;;;;;;5.85;4.10;;;4.30;90.60;;;;;;5041805;28;20055;-81
2022/01/22 00:05:16;;;;;;;6.85;3.90;;;4.30;90.70;;;;;;5047033;28;20037;-81
2022/01/22 00:07:42;;;;;;;6.57;4.57;;;4.30;91.00;;;;;;5026178;28;20098;-81
2022/01/22 00:10:16;;;;;;;5.90;3.88;;;4.20;90.60;;;;;;5019266;28;20040;-82
2022/01/22 00:12:56;;;;;;;5.03;3.38;;;4.30;90.60;;;;;;5039000;28;20052;-82
2022/01/22 00:15:24;;;;;;;5.35;3.60;;;4.30;90.60;;;;;;4984948;28;20438;-82
2022/01/22 00:17:49;;;;;;;5.78;3.85;;;4.30;90.60;;;;;;5012891;28;20094;-82
2022/01/22 00:20:16;;;;;;;5.55;3.67;;;4.30;90.60;;;;;;5029301;28;20047;-82
2022/01/22 00:22:43;;;;;;;4.55;3.38;;;4.30;90.70;;;;;;5024512;28;20026;-82
2022/01/22 00:25:09;;;;;;;5.93;3.63;;;4.30;90.70;;;;;;5031824;28;20040;-81
2022/01/22 00:27:35;;;;;;;6.18;3.78;;;4.30;90.70;;;;;;5023270;28;20090;-81
2022/01/22 00:30:01;;;;;;;5.25;3.65;;;4.30;90.70;;;;;;5012268;28;20033;-82
2022/01/22 00:32:27;;;;;;;4.63;3.45;;;4.30;90.70;;;;;;5042625;28;20096;-82
2022/01/22 00:34:52;;;;;;;4.72;4.22;;;4.30;90.70;;;;;;5027251;28;20032;-81
2022/01/22 00:37:18;;;;;;;6.82;3.45;;;4.30;90.70;;;;;;5018260;28;20032;-82
2022/01/22 00:39:43;;;;;;;6.45;4.20;;;4.40;90.70;;;;;;5020195;28;20075;-81
2022/01/22 00:42:13;;;;;;;5.28;3.78;;;4.30;90.70;;;;;;5009182;28;20538;-82
2022/01/22 00:44:38;;;;;;;4.40;3.70;;;4.30;90.70;;;;;;5017756;28;20061;-81
2022/01/22 00:47:04;;;;;;;5.78;3.55;;;4.40;90.70;;;;;;4985444;28;20041;-81
2022/01/22 00:49:30;;;;;;;6.13;3.40;;;4.30;90.70;;;;;;4998494;28;20072;-82
2022/01/22 00:51:56;;;;;;;4.95;4.45;;;4.40;90.70;;;;;;5027663;28;20119;-82
2022/01/22 00:54:21;;;;;;;9.68;4.30;;;4.40;90.70;;;;;;5034998;28;20033;-82
2022/01/22 00:56:47;;;;;;;4.60;3.80;;;4.40;90.70;;;;;;5034204;28;20370;-82
2022/01/22 00:59:12;;;;;;;6.30;4.07;;;4.40;90.70;;;;;;5035380;28;20286;-82
2022/01/22 01:01:38;;;;;;;4.65;3.72;;;4.40;90.70;;;;;;5034008;28;20625;-81
2022/01/22 01:04:04;;;;;;;6.70;4.57;;;4.40;90.70;;;;;;5017738;28;20124;-82
2022/01/22 01:06:30;;;;;;;6.68;4.88;;;4.40;90.80;;;;;;5000504;28;20025;-82
2022/01/22 01:08:56;;;;;;;8.05;4.18;;;4.40;90.80;;;;;;5013364;28;20112;-82
2022/01/22 01:11:25;;;;;;;6.15;4.50;;;4.40;90.80;;;;;;5043704;28;20533;-81
2022/01/22 01:13:56;;;;;;;9.85;5.10;;;4.40;90.80;;;;;;5010179;28;20059;-82
2022/01/22 01:16:44;;;;;;;11.10;5.40;;;4.40;90.70;;;;;;5029497;28;20032;-81
2022/01/22 01:33:16;;;;;;;7.72;4.75;;;4.40;90.80;;;;;;5038759;28;20111;-81
2022/01/22 01:35:42;;;;;;;7.93;5.13;;;4.40;90.80;;;;;;5025166;28;20038;-81
2022/01/22 01:38:08;;;;;;;11.98;5.30;;;4.40;90.70;;;;;;5025569;28;20060;-81
2022/01/22 01:40:38;;;;;;;6.38;4.78;;;4.40;90.80;;;;;;5026888;28;20060;-81
2022/01/22 01:43:14;;;;;;;8.63;5.25;;;4.40;90.80;;;;;;5032819;28;20543;-82
2022/01/22 01:45:39;;;;;;;8.98;4.78;;;4.40;90.80;;;;;;5015386;28;20447;-81
2022/01/22 01:48:10;;;;;;;8.80;4.82;;;4.50;90.80;;;;;;5028755;28;20112;-81
2022/01/22 01:50:38;;;;;;;12.98;5.07;;;4.50;90.80;;;;;;5007081;28;20057;-82
2022/01/22 01:53:17;;;;;;;11.07;5.75;;;4.50;90.80;;;;;;5014543;28;20086;-82
2022/01/22 01:58:23;;;;;;;7.22;4.70;;;4.50;90.80;;;;;;5032107;28;20625;-81
2022/01/22 02:00:49;;;;;;;7.90;5.05;;;4.50;90.80;;;;;;5004144;28;20053;-82
2022/01/22 02:03:14;;;;;;;6.50;4.65;;;4.50;90.80;;;;;;5041044;28;20052;-82
2022/01/22 02:05:40;;;;;;;6.65;4.90;;;4.50;90.80;;;;;;5020914;28;20095;-82
2022/01/22 02:08:06;;;;;;;9.20;4.85;;;4.50;90.80;;;;;;5012889;28;20156;-82
2022/01/22 02:10:36;;;;;;;7.10;4.57;;;4.50;90.80;;;;;;5018622;28;20040;-83
2022/01/22 02:24:01;;;;;;;6.78;4.70;;;4.50;90.80;;;;;;5018277;28;20148;-82
2022/01/22 02:26:28;;;;;;;9.98;5.22;;;4.50;90.80;;;;;;5034483;28;20033;-83
2022/01/22 02:28:54;;;;;;;11.05;5.18;;;4.60;90.80;;;;;;5021472;28;20039;-82
2022/01/22 02:31:37;;;;;;;7.05;4.97;;;4.60;90.80;;;;;;5035683;28;20022;-82
2022/01/22 02:39:14;;;;;;;6.68;4.95;;;4.60;90.80;;;;;;5036350;28;19920;-83
2022/01/22 02:41:46;;;;;;;5.63;4.35;;;4.60;90.80;;;;;;5017923;28;20040;-82
2022/01/22 02:44:14;;;;;;;7.13;4.63;;;4.60;91.10;;;;;;5019849;28;20105;-82
2022/01/22 02:46:42;;;;;;;7.60;4.38;;;4.60;90.80;;;;;;5030512;28;20407;-82
2022/01/22 02:49:08;;;;;;;8.25;4.75;;;4.60;90.80;;;;;;5029830;28;20033;-83
2022/01/22 02:51:33;;;;;;;7.20;4.72;;;4.60;90.80;;;;;;5027056;28;20021;-82
2022/01/22 02:54:00;;;;;;;7.93;4.85;;;4.60;90.80;;;;;;5032105;28;20408;-83
2022/01/22 02:56:26;;;;;;;6.75;4.38;;;4.60;90.80;;;;;;5032470;28;20056;-82
2022/01/22 02:58:52;;;;;;;7.80;4.60;;;4.60;91.20;;;;;;5036166;28;20036;-83
2022/01/22 03:01:18;;;;;;;8.05;4.82;;;4.60;90.80;;;;;;5030271;28;20036;-81
2022/01/22 03:03:44;;;;;;;5.47;4.43;;;4.60;91.20;;;;;;5038334;28;20043;-83
2022/01/22 03:06:09;;;;;;;8.15;4.65;;;4.60;90.90;;;;;;4999170;28;20033;-83
2022/01/22 03:08:37;;;;;;;6.50;4.72;;;4.60;90.80;;;;;;5026666;28;20064;-82
2022/01/22 03:11:06;;;;;;;6.55;4.60;;;4.60;91.20;;;;;;5011287;28;20127;-82
2022/01/22 03:18:59;;;;;;;6.82;4.60;;;4.60;90.80;;;;;;5033056;28;20029;-82
2022/01/22 03:21:34;;;;;;;5.95;4.30;;;4.60;90.80;;;;;;5005650;28;20044;-83
2022/01/22 03:29:34;;;;;;;7.57;4.10;;;4.60;90.80;;;;;;5007260;28;20424;-81
2022/01/22 03:32:00;;;;;;;4.47;3.78;;;4.60;90.80;;;;;;5025749;28;20040;-81
2022/01/22 03:34:27;;;;;;;5.00;3.75;;;4.70;90.80;;;;;;5031889;28;20029;-80
2022/01/22 03:36:53;;;;;;;6.20;3.75;;;4.60;90.80;;;;;;5007838;28;20767;-80
2022/01/22 03:39:19;;;;;;;4.57;3.33;;;4.60;90.70;;;;;;5020405;28;20036;-80
2022/01/22 03:41:45;;;;;;;6.30;3.50;;;4.70;90.80;;;;;;5048979;28;20072;-81
2022/01/22 03:44:11;;;;;;;5.05;3.10;;;4.70;90.70;;;;;;5036019;28;20037;-79
2022/01/22 03:46:38;;;;;;;5.93;3.60;;;4.70;90.80;;;;;;5001283;28;20522;-80
2022/01/22 03:49:04;;;;;;;4.25;3.38;;;4.70;90.80;;;;;;5041634;28;20537;-80
2022/01/22 03:51:30;;;;;;;3.80;3.20;;;4.70;90.70;;;;;;5022860;28;20068;-81
2022/01/22 03:53:56;;;;;;;4.75;3.25;;;4.70;90.70;;;;;;5037592;28;21113;-81
2022/01/22 03:56:24;;;;;;;4.85;3.10;;;4.70;90.70;;;;;;5026769;28;20042;-80
2022/01/22 03:58:50;;;;;;;7.75;3.28;;;4.70;90.70;;;;;;5011262;28;20028;-81
2022/01/22 04:04:07;;;;;;;5.80;3.15;;;4.70;90.70;;;;;;5018612;28;20040;-81
2022/01/22 04:09:01;;;;;;;5.38;2.85;;;4.70;90.70;;;;;;5024861;28;20029;-81
2022/01/22 04:11:27;;;;;;;6.82;2.88;;;4.70;90.70;;;;;;5024362;28;20045;-81
2022/01/22 04:13:58;;;;;;;6.65;3.13;;;4.70;90.70;;;;;;5025195;28;20033;-81
2022/01/22 04:16:24;;;;;;;3.55;2.53;;;4.70;90.70;;;;;;5032723;28;20032;-81
2022/01/22 04:27:13;;;;;;;2.85;2.30;;;4.70;90.70;;;;;;5000516;28;20047;-83
2022/01/22 04:29:39;;;;;;;5.25;2.50;;;4.70;90.60;;;;;;5051968;28;20059;-83
2022/01/22 04:32:06;;;;;;;5.18;2.45;;;4.70;90.60;;;;;;5015731;28;20033;-82
2022/01/22 04:34:31;;;;;;;4.47;2.83;;;4.70;90.60;;;;;;5016997;28;20032;-81
2022/01/22 04:36:57;;;;;;;4.65;2.45;;;4.70;90.60;;;;;;5050160;28;20041;-83
2022/01/22 04:39:24;;;;;;;2.90;2.25;;;4.70;90.60;;;;;;5027118;28;20108;-81
2022/01/22 04:41:52;;;;;;;2.60;2.40;;;4.70;90.60;;;;;;4999737;28;20092;-83
2022/01/22 04:44:17;;;;;;;7.25;3.00;;;4.70;90.60;;;;;;5007908;28;20104;-82
2022/01/22 04:49:10;;;;;;;3.20;2.72;;;4.70;90.60;;;;;;5027542;28;20044;-82
2022/01/22 04:57:04;;;;;;;3.22;2.47;;;4.70;90.60;;;;;;5030073;28;20166;-81
2022/01/22 04:59:30;;;;;;;2.63;2.15;;;4.70;90.60;;;;;;5026790;28;20119;-81
2022/01/22 05:01:56;;;;;;;4.60;2.53;;;4.70;90.60;;;;;;5026541;28;20093;-81
2022/01/22 05:04:21;;;;;;;3.67;2.50;;;4.70;90.60;;;;;;5033492;28;20033;-81
2022/01/22 05:06:47;;;;;;;2.45;2.25;;;4.70;90.60;;;;;;5012488;28;20044;-80
2022/01/22 05:09:12;;;;;;;4.00;2.45;;;4.70;90.60;;;;;;4972527;28;20041;-80
2022/01/22 05:11:38;;;;;;;3.47;2.30;;;4.70;90.60;;;;;;5026282;28;20033;-81
2022/01/22 05:14:03;;;;;;;4.65;2.45;;;4.70;90.60;;;;;;5010702;28;20499;-81
2022/01/22 05:16:29;;;;;;;3.38;2.40;;;4.70;90.60;;;;;;5018251;28;20467;-81
2022/01/22 05:19:11;;;;;;;2.17;1.90;;;4.70;90.60;;;;;;5031930;28;20224;-82
2022/01/22 05:21:38;;;;;;;2.03;1.92;;;4.70;90.60;;;;;;5015521;28;20029;-80
2022/01/22 05:24:09;;;;;;;2.80;2.15;;;4.70;90.60;;;;;;5017371;28;20041;-81
2022/01/22 05:37:05;;;;;;;4.22;2.45;;;4.70;90.60;;;;;;5035647;28;20575;-82
2022/01/22 05:39:31;;;;;;;4.93;2.47;;;4.70;90.60;;;;;;5008294;28;20097;-81
2022/01/22 05:41:58;;;;;;;4.20;2.45;;;4.70;90.60;;;;;;5024113;28;20036;-81
2022/01/22 05:44:24;;;;;;;2.47;2.28;;;4.70;90.60;;;;;;5006397;28;20588;-84
2022/01/22 05:46:51;;;;;;;4.72;2.38;;;4.70;90.60;;;;;;5029789;28;20049;-83
2022/01/22 05:49:20;;;;;;;2.80;2.53;;;4.60;90.60;;;;;;5008702;28;20045;-83
2022/01/22 05:51:47;;;;;;;3.35;2.50;;;4.70;90.60;;;;;;5002754;28;20029;-84
2022/01/22 05:59:40;;;;;;;4.60;2.60;;;4.60;90.60;;;;;;5039248;28;20038;-83
2022/01/22 06:02:11;;;;;;;5.90;2.50;;;4.60;90.60;;;;;;5042351;28;20033;-83
2022/01/22 06:04:36;;;;;;;7.03;2.78;;;4.70;90.70;;;;;;5038340;28;20051;-84
2022/01/22 06:07:03;;;;;;;2.90;2.70;;;4.70;90.70;;;;;;5015501;28;20045;-81
2022/01/22 06:09:31;;;;;;;6.35;2.75;;;4.60;90.60;;;;;;5031821;28;20096;-81
2022/01/22 06:12:03;;;;;;;3.80;2.70;;;4.70;90.60;;;;;;5034266;28;20478;-80
2022/01/22 06:14:29;;;;;;;2.90;2.47;;;4.60;90.60;;;;;;5017029;28;20047;-81
2022/01/22 06:16:55;;;;;;;3.17;2.40;;;4.60;90.60;;;;;;5060082;28;20043;-81
2022/01/22 06:19:20;;;;;;;4.47;2.72;;;4.70;90.60;;;;;;5051373;28;20033;-81
2022/01/22 06:21:46;;;;;;;91.82;57.60;;;4.70;90.70;;;;;;5027154;28;20139;-81
2022/01/22 06:24:12;;;;;;;6.82;5.00;;;4.70;90.70;;;;;;5035010;28;20536;-84
2022/01/22 06:26:38;;;;;;;6.93;5.38;;;4.60;90.60;;;;;;5049893;28;20033;-82
2022/01/22 06:29:04;;;;;;;5.43;4.65;;;4.70;90.70;;;;;;5071121;28;20108;-81
2022/01/22 06:31:30;;;;;;;5.43;4.55;;;4.70;90.70;;;;;;5041622;28;20033;-83
2022/01/22 06:33:55;;;;;;;7.68;3.95;;;4.70;90.70;;;;;;5006299;28;20564;-82
2022/01/22 06:36:21;;;;;;;5.78;3.88;;;4.60;90.70;;;;;;5017616;28;20481;-83
2022/01/22 06:38:48;;;;;;;3.10;2.80;;;4.70;90.70;;;;;;5005981;28;20049;-82
2022/01/22 06:43:58;;;;;;;6.43;4.05;;;4.70;90.70;;;;;;5026674;28;20056;-81
2022/01/22 06:46:24;;;;;;;15.85;6.82;;;4.70;90.70;;;;;;5012760;28;20115;-82
2022/01/22 06:48:49;;;;;;;5.57;3.05;;;4.70;90.70;;;;;;5032061;28;20033;-85
2022/01/22 06:51:16;;;;;;;10.20;5.07;;;4.70;90.70;;;;;;5020763;28;20040;-83
2022/01/22 06:53:41;;;;;;;13.05;5.53;;;4.70;90.70;;;;;;5019266;28;20600;-82
2022/01/22 06:56:09;;;;;;;5.93;3.33;;;4.70;90.70;;;;;;4997326;28;20033;-82
2022/01/22 06:58:34;;;;;;;9.55;4.45;;;4.70;90.70;;;;;;5000882;28;20487;-82
2022/01/22 07:01:00;;;;;;;8.63;3.80;;;4.70;90.70;;;;;;5001646;28;20714;-82
2022/01/22 07:03:25;;;;;;;28.67;9.57;;;4.70;91.10;;;;;;5024837;28;20449;-81
2022/01/22 07:05:51;;;;;;;20.80;8.27;;;4.70;90.70;;;;;;5023618;28;20034;-83
2022/01/22 07:08:16;;;;;;;28.02;11.35;;;4.70;90.70;;;;;;5021967;28;20028;-83
2022/01/22 07:10:42;;;;;;;7.00;4.25;;;4.70;90.70;;;;;;5002777;28;20029;-84
2022/01/22 07:13:08;;;;;;;13.13;8.90;;;4.70;90.70;;;;;;5041492;28;20104;-82
2022/01/22 07:15:33;;;;;;;7.68;5.68;;;4.70;90.80;;;;;;5007847;28;20648;-82
2022/01/22 07:17:59;;;;;;;5.45;4.18;;;4.70;90.70;;;;;;5036067;28;20088;-81
2022/01/22 07:20:30;;;;;;;4.50;3.97;;;4.70;90.70;;;;;;5037306;28;20029;-81
2022/01/22 07:23:13;;;;;;;4.15;2.97;;;4.70;90.80;;;;;;4999340;28;20018;-82
2022/01/22 07:25:38;;;;;;;3.55;3.10;;;4.70;90.80;;;;;;5006411;28;20039;-82
2022/01/22 07:28:04;;;;;;;6.32;4.28;;;4.70;90.70;;;;;;5002515;28;20041;-81
2022/01/22 07:30:30;;;;;;;5.47;3.97;;;4.70;90.70;;;;;;4987443;28;20029;-82
2022/01/22 07:32:56;;;;;;;5.32;4.05;;;4.70;90.70;;;;;;4982240;28;20033;-82
2022/01/22 07:35:21;;;;;;;8.95;5.05;;;4.70;90.80;;;;;;5023012;28;20094;-82
2022/01/22 07:37:47;;;;;;;7.53;3.92;;;4.70;90.80;;;;;;5046382;28;20068;-81
2022/01/22 07:40:13;;;;;;;8.15;4.75;;;4.80;90.80;;;;;;5052101;28;20522;-80
2022/01/22 07:42:39;;;;;;;8.43;4.60;;;4.80;90.80;;;;;;5012934;28;20640;-82
2022/01/22 07:45:05;;;;;;;4.57;3.63;;;4.70;90.70;;;;;;5026413;28;20040;-81
2022/01/22 07:47:31;;;;;;;5.88;3.95;;;4.80;90.80;;;;;;5020569;28;20083;-81
2022/01/22 07:49:57;;;;;;;6.70;4.72;;;4.70;90.80;;;;;;5003083;28;20112;-82
2022/01/22 07:52:22;;;;;;;25.80;12.18;;;4.80;90.80;;;;;;5020431;28;20037;-82
2022/01/22 07:54:48;;;;;;;7.38;4.90;;;4.80;90.80;;;;;;5031242;28;20037;-82
2022/01/22 07:57:13;;;;;;;6.50;4.45;;;4.80;90.80;;;;;;5005404;28;20160;-81
2022/01/22 07:59:39;;;;;;;82.00;23.63;;;4.80;90.80;;;;;;4994546;28;20033;-80
2022/01/22 08:02:05;;;;;;;10.60;4.85;;;4.80;90.80;;;;;;5005578;28;20045;-81
2022/01/22 08:04:30;;;;;;;6.38;4.45;;;4.80;90.80;;;;;;5011905;28;20040;-81
2022/01/22 08:06:57;;;;;;;6.30;4.20;;;4.80;90.80;;;;;;4998541;28;20106;-81
2022/01/22 08:09:23;;;;;;;5.63;4.43;;;4.80;90.80;;;;;;5025247;28;20035;-81
2022/01/22 08:11:48;;;;;;;4.75;3.60;;;4.80;90.80;;;;;;5010723;28;20029;-81
2022/01/22 08:14:14;;;;;;;3.35;2.90;;;4.80;90.80;;;;;;5013281;28;20029;-81
2022/01/22 08:16:40;;;;;;;4.82;3.50;;;4.80;90.80;;;;;;5025349;28;20041;-81
2022/01/22 08:19:06;;;;;;;3.97;3.35;;;4.90;90.80;;;;;;5025363;28;20041;-81
2022/01/22 08:21:31;;;;;;;5.57;3.58;;;4.90;90.80;;;;;;5008278;28;20083;-82
2022/01/22 08:23:57;;;;;;;6.13;4.78;;;4.90;90.80;;;;;;4990977;28;20033;-82
2022/01/22 08:26:27;;;;;;;4.90;3.70;;;4.90;90.80;;;;;;5028845;28;20033;-81
2022/01/22 08:28:53;;;;;;;4.15;2.83;;;4.90;90.80;;;;;;5021776;28;20045;-81
2022/01/22 08:36:35;;;;;;;5.70;3.85;;;4.90;90.80;;;;;;5026685;28;20171;-81
2022/01/22 08:39:01;;;;;;;3.28;3.00;;;5.00;90.80;;;;;;5030925;28;20108;-81
2022/01/22 08:41:26;;;;;;;2.95;2.58;;;5.00;90.80;;;;;;5008951;28;20546;-81
2022/01/22 08:43:54;;;;;;;3.38;3.05;;;5.00;90.90;;;;;;5014990;28;20040;-82
2022/01/22 08:46:20;;;;;;;3.17;2.70;;;5.00;90.80;;;;;;5025554;28;20040;-81
2022/01/22 08:48:46;;;;;;;6.85;3.63;;;5.00;90.80;;;;;;5026654;28;20033;-84
2022/01/22 08:51:12;;;;;;;3.70;2.80;;;5.10;90.80;;;;;;5012732;28;20033;-84
2022/01/22 08:53:38;;;;;;;3.13;2.83;;;5.10;90.90;;;;;;5034581;28;20561;-83
2022/01/22 08:56:05;;;;;;;2.90;2.58;;;5.10;90.90;;;;;;5030180;28;20048;-84
2022/01/22 08:58:31;;;;;;;3.60;3.22;;;5.10;90.90;;;;;;5043002;28;20088;-86
2022/01/22 09:00:56;;;;;;;5.72;4.07;;;5.10;90.90;;;;;;5037523;28;20532;-84
2022/01/22 09:03:23;;;;;;;3.88;3.30;;;5.10;90.90;;;;;;5027780;28;20196;-85
2022/01/22 09:05:49;;;;;;;3.20;2.88;;;5.10;90.80;;;;;;5011813;28;20052;-84
2022/01/22 09:08:15;;;;;;;3.67;3.25;;;5.20;90.90;;;;;;5004749;28;20033;-83
2022/01/22 09:10:41;;;;;;;7.38;3.42;;;5.20;90.90;;;;;;5012681;28;20037;-85
2022/01/22 09:13:07;;;;;;;5.13;3.00;;;5.20;90.80;;;;;;5035098;28;20106;-83
2022/01/22 09:15:33;;;;;;;3.20;2.90;;;5.20;90.80;;;;;;5026962;28;20536;-83
2022/01/22 09:17:58;;;;;;;3.47;3.00;;;5.20;90.80;;;;;;5025404;28;20029;-83
2022/01/22 09:20:43;;;;;;;5.10;3.45;;;5.30;90.80;;;;;;5036291;28;20033;-83
2022/01/22 09:23:10;;;;;;;5.18;3.92;;;5.30;90.80;;;;;;5007091;28;20033;-83
2022/01/22 09:25:35;;;;;;;5.05;3.25;;;5.30;90.80;;;;;;5038760;28;20021;-82
2022/01/22 09:28:01;;;;;;;4.90;4.03;;;5.30;90.80;;;;;;5008988;28;20159;-83
2022/01/22 09:30:26;;;;;;;6.45;5.78;;;5.30;90.80;;;;;;5036916;28;20039;-83
2022/01/22 09:32:52;;;;;;;5.68;3.22;;;5.30;90.80;;;;;;5031162;28;20063;-81
2022/01/22 09:35:18;;;;;;;3.33;2.83;;;5.30;90.80;;;;;;5009431;28;20078;-82
2022/01/22 09:37:43;;;;;;;3.53;3.10;;;5.30;90.80;;;;;;5006353;28;20446;-81
2022/01/22 09:40:09;;;;;;;3.28;2.97;;;5.40;90.80;;;;;;5008044;28;20099;-81
2022/01/22 09:42:35;;;;;;;3.63;2.65;;;5.30;90.80;;;;;;4992233;28;20107;-81
2022/01/22 09:45:02;;;;;;;4.30;3.17;;;5.40;90.80;;;;;;5014313;28;20491;-82
2022/01/22 09:47:28;;;;;;;3.53;3.13;;;5.40;90.80;;;;;;5021334;28;20037;-81
2022/01/22 09:49:54;;;;;;;3.45;3.00;;;5.40;90.80;;;;;;4995376;28;20397;-82
2022/01/22 09:52:20;;;;;;;5.68;4.13;;;5.40;90.70;;;;;;5034136;28;20105;-81
2022/01/22 09:54:45;;;;;;;6.07;4.25;;;5.40;90.70;;;;;;5000183;28;20584;-81
2022/01/22 09:57:12;;;;;;;8.32;4.53;;;5.40;90.80;;;;;;5001427;28;20398;-81
2022/01/22 09:59:38;;;;;;;8.82;4.82;;;5.40;90.70;;;;;;4992744;28;20037;-82
2022/01/22 10:02:16;;;;;;;5.20;3.85;;;5.40;90.70;;;;;;4996829;28;20340;-82
2022/01/22 10:04:45;;;;;;;4.35;3.83;;;5.40;90.80;;;;;;5032861;28;20036;-82
2022/01/22 10:07:15;;;;;;;4.50;3.22;;;5.50;90.80;;;;;;5023147;28;20052;-82
2022/01/22 10:10:00;;;;;;;5.35;3.58;;;5.50;90.80;;;;;;4995506;28;20064;-81
2022/01/22 10:12:27;;;;;;;7.00;4.70;;;5.50;90.70;;;;;;5022315;28;20041;-82
2022/01/22 10:15:05;;;;;;;5.45;3.65;;;5.50;90.70;;;;;;5003637;28;20095;-81
2022/01/22 10:17:40;;;;;;;3.40;3.10;;;5.50;90.70;;;;;;5042663;28;20105;-81
2022/01/22 10:20:29;;;;;;;5.10;3.15;;;5.50;90.70;;;;;;5027089;28;20090;-81
2022/01/22 10:23:15;;;;;;;4.88;3.58;;;5.50;90.70;;;;;;5046436;28;20447;-82
2022/01/22 10:25:44;;;;;;;4.60;3.85;;;5.50;90.70;;;;;;5017999;28;20041;-81
2022/01/22 10:28:13;;;;;;;3.88;3.50;;;5.50;90.70;;;;;;5017790;28;20044;-81
2022/01/22 10:30:41;;;;;;;4.70;3.50;;;5.50;90.70;;;;;;5027322;28;20037;-81
2022/01/22 10:33:23;;;;;;;4.10;3.70;;;5.60;90.70;;;;;;5009778;28;20083;-82
2022/01/22 10:35:49;;;;;;;4.05;3.35;;;5.50;90.70;;;;;;5028063;28;20124;-81
2022/01/22 10:38:18;;;;;;;3.53;3.13;;;5.60;90.70;;;;;;5028204;28;20510;-81
2022/01/22 10:40:44;;;;;;;3.67;3.22;;;5.60;90.70;;;;;;5027524;28;20040;-82
2022/01/22 10:43:33;;;;;;;3.90;3.50;;;5.60;90.70;;;;;;4999726;28;20048;-81
2022/01/22 10:46:32;;;;;;;4.03;3.47;;;5.60;90.70;;;;;;4989613;28;20025;-82
2022/01/22 10:49:07;;;;;;;4.60;3.72;;;5.60;90.70;;;;;;5023169;28;20824;-81
2022/01/22 10:51:46;;;;;;;3.65;3.25;;;5.70;90.70;;;;;;5011183;28;20032;-81
2022/01/22 10:54:13;;;;;;;5.03;4.35;;;5.70;90.70;;;;;;5020153;28;20037;-81
2022/01/22 10:56:40;;;;;;;5.43;3.72;;;5.70;90.70;;;;;;5027345;28;20290;-81
2022/01/22 10:59:07;;;;;;;4.50;3.42;;;5.70;90.70;;;;;;5014918;28;20037;-81
2022/01/22 11:01:53;;;;;;;4.18;3.78;;;5.80;90.70;;;;;;5038493;28;20037;-81
2022/01/22 11:04:29;;;;;;;5.10;3.60;;;5.80;90.70;;;;;;5025227;28;20487;-81
2022/01/22 11:06:54;;;;;;;6.38;4.32;;;5.80;91.00;;;;;;5014668;28;20048;-80
2022/01/22 11:09:21;;;;;;;5.25;4.32;;;5.80;90.70;;;;;;5043420;28;20032;-80
2022/01/22 11:11:47;;;;;;;6.22;4.07;;;5.90;90.70;;;;;;5047612;28;20115;-82
2022/01/22 11:14:12;;;;;;;4.47;3.70;;;5.90;90.70;;;;;;4994106;28;20764;-81
2022/01/22 11:16:39;;;;;;;3.83;3.33;;;5.90;90.60;;;;;;5024586;28;20049;-81
2022/01/22 11:19:09;;;;;;;6.00;3.72;;;5.90;90.60;;;;;;5022768;28;20113;-81
2022/01/22 11:21:40;;;;;;;4.13;3.72;;;5.90;90.60;;;;;;5028685;28;20035;-80
2022/01/22 11:24:09;;;;;;;5.32;3.65;;;6.00;90.60;;;;;;5025310;28;20157;-81
2022/01/22 11:26:39;;;;;;;5.25;4.10;;;5.90;90.60;;;;;;4993695;28;20530;-80
2022/01/22 11:29:05;;;;;;;6.15;4.47;;;6.00;90.60;;;;;;4989772;28;20557;-81
2022/01/22 11:31:31;;;;;;;4.85;4.00;;;6.00;90.60;;;;;;5021836;28;20033;-81
2022/01/22 11:33:56;;;;;;;4.55;4.00;;;6.00;90.60;;;;;;4981100;28;20049;-81
2022/01/22 11:36:25;;;;;;;5.47;4.30;;;6.00;90.60;;;;;;5013140;28;20053;-82
2022/01/22 11:39:00;;;;;;;5.35;4.03;;;6.10;90.60;;;;;;5013027;28;20033;-82
2022/01/22 11:41:26;;;;;;;5.38;4.60;;;6.20;90.50;;;;;;4986918;28;20176;-83
2022/01/22 11:46:30;;;;;;;5.00;4.20;;;6.20;90.50;;;;;;5020229;28;20036;-83
2022/01/22 11:49:14;;;;;;;5.30;3.92;;;6.20;90.50;;;;;;5026381;28;20675;-83
2022/01/22 11:51:44;;;;;;;5.20;4.05;;;6.30;90.50;;;;;;5010173;28;20091;-82
2022/01/22 11:54:10;;;;;;;6.18;4.15;;;6.30;90.50;;;;;;5016841;28;20368;-81
2022/01/22 11:56:43;;;;;;;5.28;4.57;;;6.30;90.50;;;;;;5026226;28;20039;-82
2022/01/22 11:59:12;;;;;;;5.30;4.38;;;6.30;90.50;;;;;;4996546;28;20040;-81
2022/01/22 12:01:38;;;;;;;5.53;4.18;;;6.30;90.50;;;;;;5025090;28;20747;-81
2022/01/22 12:04:04;;;;;;;6.55;4.15;;;6.30;90.40;;;;;;5037770;28;20041;-82
2022/01/22 12:06:30;;;;;;;5.45;4.43;;;6.40;90.50;;;;;;5001278;28;20111;-81
2022/01/22 12:09:09;;;;;;;5.97;4.65;;;6.40;90.50;;;;;;4999959;28;20463;-81
2022/01/22 12:14:48;;;;;;;9.10;5.45;;;6.40;90.40;;;;;;5024915;28;20032;-81
2022/01/22 12:17:20;;;;;;;6.55;4.70;;;6.50;90.50;;;;;;5045644;28;20545;-82
2022/01/22 12:20:31;;;;;;;6.70;4.78;;;6.60;90.50;;;;;;4982848;28;20021;-82
2022/01/22 12:22:37;;;;;;;5.13;4.00;;;6.70;90.50;;;;;;5012612;28;20099;-82
2022/01/22 12:25:12;;;;;;;5.65;4.03;;;6.90;90.50;;;;;;5053579;28;20487;-82
2022/01/22 12:27:42;;;;;;;4.90;3.75;;;7.00;90.40;;;;;;5035216;28;20048;-82
2022/01/22 12:30:08;;;;;;;5.25;3.63;;;7.20;90.40;;;;;;5006753;28;20033;-82
2022/01/22 12:32:47;;;;;;;4.25;3.35;;;7.30;90.30;;;;;;5032280;28;20029;-82
2022/01/22 12:35:43;;;;;;;3.75;3.03;;;7.40;90.20;;;;;;5029763;28;20041;-82
2022/01/22 12:41:14;;;;;;;5.38;3.33;;;7.50;90.00;;;;;;5001144;28;20060;-82
2022/01/22 12:43:40;;;;;;;5.38;3.60;;;7.50;90.30;;;;;;5033088;28;20043;-82
2022/01/22 12:46:06;;;;;;;4.80;3.22;;;7.50;89.90;;;;;;5032311;28;20048;-81
2022/01/22 12:48:33;;;;;;;4.05;2.70;;;7.50;89.80;;;;;;5015973;28;21271;-81
2022/01/22 12:51:00;;;;;;;4.05;3.17;;;7.50;89.60;;;;;;5017468;28;20702;-81
2022/01/22 12:53:26;;;;;;;4.72;3.22;;;7.50;89.50;;;;;;5029451;28;20034;-81
2022/01/22 12:58:21;;;;;;;4.70;3.13;;;7.50;89.50;;;;;;5032447;28;20021;-81
2022/01/22 13:00:48;;;;;;;3.25;2.90;;;7.50;89.30;;;;;;5023322;28;20029;-81
2022/01/22 13:03:14;;;;;;;5.30;3.95;;;7.40;89.30;;;;;;5018828;28;20028;-81
2022/01/22 13:05:44;;;;;;;9.30;4.90;;;7.40;89.20;;;;;;5022229;28;20043;-81
2022/01/22 13:08:09;;;;;;;7.03;4.18;;;7.40;89.20;;;;;;5023909;28;20095;-81
2022/01/22 13:10:43;;;;;;;8.82;5.20;;;7.40;89.10;;;;;;5040433;28;20032;-81
2022/01/22 13:13:10;;;;;;;6.60;3.92;;;7.40;89.00;;;;;;5026445;28;20041;-81
2022/01/22 13:15:36;;;;;;;4.07;2.75;;;7.40;89.10;;;;;;5015578;28;20053;-81
2022/01/22 13:18:03;;;;;;;7.03;4.78;;;7.40;89.00;;;;;;5033744;28;20041;-82
2022/01/22 13:20:32;;;;;;;13.20;7.55;;;7.40;88.90;;;;;;5008503;28;20025;-82
2022/01/22 13:23:01;;;;;;;11.25;6.93;;;7.40;88.90;;;;;;5032182;28;20033;-82
2022/01/22 13:25:27;;;;;;;5.90;3.83;;;7.40;88.90;;;;;;5018272;28;20115;-82
2022/01/22 13:28:06;;;;;;;5.57;4.05;;;7.40;88.80;;;;;;5031081;28;20392;-82
2022/01/22 13:30:38;;;;;;;6.13;3.95;;;7.40;88.70;;;;;;5037274;28;20057;-82
2022/01/22 13:33:16;;;;;;;4.10;3.70;;;7.50;88.80;;;;;;5053607;28;20088;-82
2022/01/22 13:39:34;;;;;;;6.53;3.67;;;7.50;89.40;;;;;;5044853;28;20033;-82
2022/01/22 13:49:29;;;;;;;5.00;3.65;;;7.50;88.50;;;;;;5015889;28;20048;-82
2022/01/22 13:51:59;;;;;;;3.88;2.88;;;7.50;88.40;;;;;;5018607;28;20036;-82
2022/01/22 13:54:35;;;;;;;4.25;3.10;;;7.50;88.30;;;;;;5020118;28;20526;-82
2022/01/22 13:57:11;;;;;;;10.05;6.18;;;7.50;88.20;;;;;;5010090;28;20056;-82
2022/01/22 13:59:41;;;;;;;12.65;7.05;;;7.50;88.20;;;;;;5037290;28;20051;-82
2022/01/22 14:02:11;;;;;;;9.98;5.80;;;7.50;88.10;;;;;;5014121;28;20093;-82
2022/01/22 14:04:57;;;;;;;6.57;4.38;;;7.50;88.20;;;;;;5059144;28;20032;-82
2022/01/22 14:07:33;;;;;;;6.20;4.35;;;7.50;88.20;;;;;;5025649;28;20060;-82
2022/01/22 14:10:07;;;;;;;6.25;4.05;;;7.50;88.10;;;;;;5034694;28;20659;-82
2022/01/22 14:12:51;;;;;;;7.22;5.03;;;7.50;88.00;;;;;;5008176;28;20098;-82
2022/01/22 14:15:36;;;;;;;8.00;4.50;;;7.50;88.00;;;;;;5030939;28;20534;-81
2022/01/22 14:18:23;;;;;;;7.68;4.65;;;7.50;87.90;;;;;;5019519;28;20085;-82
2022/01/22 14:21:14;;;;;;;6.20;4.30;;;7.40;88.00;;;;;;5028083;28;20063;-82
2022/01/22 14:23:39;;;;;;;5.63;3.88;;;7.50;88.10;;;;;;5033612;28;20037;-81
2022/01/22 14:26:25;;;;;;;6.63;3.65;;;7.40;88.00;;;;;;5016415;28;20060;-82
2022/01/22 14:29:09;;;;;;;4.57;3.63;;;7.50;88.10;;;;;;5052741;28;20044;-82
2022/01/22 14:31:44;;;;;;;6.43;4.40;;;7.40;88.00;;;;;;5030807;28;20029;-82
2022/01/22 14:34:11;;;;;;;7.25;4.22;;;7.40;88.00;;;;;;5046013;28;20048;-82
2022/01/22 14:36:49;;;;;;;4.82;4.05;;;7.40;88.80;;;;;;5050303;28;20045;-82
2022/01/22 14:44:42;;;;;;;5.93;3.97;;;7.50;87.90;;;;;;5023233;28;20091;-82
2022/01/22 14:47:20;;;;;;;7.60;4.13;;;7.40;87.80;;;;;;5026456;28;20037;-82
2022/01/22 14:50:12;;;;;;;7.30;4.13;;;7.40;88.30;;;;;;5012587;28;20438;-81
2022/01/22 14:52:39;;;;;;;6.95;3.97;;;7.40;87.70;;;;;;5037907;28;20764;-82
2022/01/22 14:55:06;;;;;;;9.25;5.55;;;7.40;87.80;;;;;;5031722;28;20041;-82
2022/01/22 14:57:36;;;;;;;6.03;3.72;;;7.40;87.80;;;;;;5019437;28;20045;-82
2022/01/22 15:00:07;;;;;;;6.43;4.30;;;7.40;87.80;;;;;;5012083;28;20043;-83